Terminal Aerodrome Forecast
Issued by NWS

Home | Current Version | Previous Version | Text Only | Print | Product List | Glossary On
Versions: 1 2 3 4 5 6 7 8 9 10 11 12 13 14 15 16 17 18 19 20
586
FTUS43 KEAX 301526 AAA
TAFMKC
TAF AMD
KMKC 301526Z 3015/0112 16004KT P6SM VCSH OVC010
     FM301700 21008KT P6SM SCT010
     FM301900 24009KT P6SM SCT040
     FM010500 27006KT P6SM SCT020=

USA.gov is the U.S. government's official web portal to all federal, state and local government web resources and services.